Nathaniel B. Palmer — WBP3210 — position and weather

sailwx.info

Track history (hours):
 
Tides and Currents Weather Stations Pressure Air Temp Water Temp Dewpoint Dewpoint Depression Visibility Wind Speed Wind Dir Waves Ship Positions

Oceanographic research ship Nathaniel B. Palmer (USA)

Contact: Ethan Norris, ethan.norris.contractor@usap.gov

Detailed information on ship capabilities available from University of Delaware's Ocean Information Center and ARCUS's ALIAS (Arctic Logistics Information and Support) project.

Owner: OFFSHORE SERVICE VESSELS, GALLIANO, LA. More information available from US FCC via Universal Licensing System and Coast Guard Vessel Documentation Center.

Last reported at 2014-Oct-31 16:00 UTC. Time now 2014-Oct-31 21:55 UTC.
Position S 63°00' W 068°42'.

Type: Other ship. MMSI: 366610000.

Wind from 280 at 16 knots

Barometer 1010.6 mb
Air temperature -2.4 ° C
Water temperature 1.7 ° C

Date/timePositionNaut miles runAvg speedWind from/ knotsBaromVisibWave heightAir tempDewpointWater temp
2014-Oct-31 16:00S 63°00' W 068°42'7 3.3 280 / 161010.6 -2.4 1.7
2014-Oct-31 14:00S 62°54' W 068°48'0 0.0 350 / 171012.4 -3.5 1.6
2014-Oct-31 12:00S 62°54' W 068°48'3 1.4 310 / 211013.2 -4.4 1.6
2014-Oct-31 10:00S 62°54' W 068°54'15 7.3 350 / 201013.3 -5.1 1.6
2014-Oct-31 08:00S 62°42' W 069°12'10 2.6 240 / 141013.1 -5.1 1.7
2014-Oct-31 04:00S 62°36' W 069°30'12 6.2 320 / 231011.5 -4.7 0.6
2014-Oct-31 02:00S 62°24' W 069°24'19 9.4 220 / 281010.2 -4.0 1.1
2014-Oct-31 00:00S 62°06' W 069°12'18 9.1 200 / 291009.0 -3.5 1.1
2014-Oct-30 22:00S 61°48' W 069°06'19 9.4 200 / 271006.7 -2.3 0.6
2014-Oct-30 20:00S 61°30' W 068°54'19 9.4 210 / 221005.3 -3.1 0.3
2014-Oct-30 18:00S 61°12' W 068°42'19 9.5 190 / 211003.0 -1.9 0.6
2014-Oct-30 16:00S 60°54' W 068°30'0 0.0 240 / 231001.6 -1.4 1.5
2014-Oct-30 14:00S 60°54' W 068°30'0 0.0 220 / 20999.9 -2.4 1.4
2014-Oct-30 12:00S 60°54' W 068°30'19 9.5 150 / 21998.1 -2.4 1.4
2014-Oct-30 10:00S 60°36' W 068°18'13 6.7 180 / 21995.8 -1.8 1.4
2014-Oct-30 08:00S 60°24' W 068°06'75 9.4 180 / 18994.2 -2.4 2.5
2014-Oct-30 00:00S 59°12' W 067°24'12 6.2 200 / 18988.9 -1.7 7.9
2014-Oct-29 22:00S 59°00' W 067°18'18 9.1 190 / 20987.1 -1.1 7.9
2014-Oct-29 20:00S 58°42' W 067°12'18 9.1 190 / 16985.4 -0.3 7.9
2014-Oct-29 18:00S 58°24' W 067°06'18 9.1 160 / 11984.1 0.6 7.9
2014-Oct-29 16:00S 58°06' W 067°00'18 9.1 190 / 10983.0 1.2 7.9
2014-Oct-29 14:00S 57°48' W 066°54'18 9.1 200 / 8982.8 1.2 7.9
2014-Oct-29 12:00S 57°30' W 066°48'73 9.1 250 / 8982.6 1.0 7.9
2014-Oct-29 04:00S 56°18' W 066°24'18 9.2 280 / 14986.0 1.5 7.9
2014-Oct-29 02:00S 56°00' W 066°18'18 9.2 280 / 20987.0 1.0 7.9
2014-Oct-29 00:00S 55°42' W 066°12'12 6.2 260 / 21987.4 3.1 7.9
2014-Oct-28 22:00S 55°30' W 066°06'45 5.7 260 / 20988.2 3.1 7.9
2014-Oct-28 14:00S 55°00' W 065°06'9 4.6 250 / 16988.8 6.0 7.9
2014-Oct-28 12:00S 54°54' W 064°54'24 6.1 300 / 2988.8 7.6 7.9
2014-Oct-28 08:00S 54°30' W 064°48'32 5.3 300 / 13988.8 7.3 7.9
2014-Oct-28 02:00S 54°06' W 065°24'32 8.0 330 / 26990.2 10.1 7.9
2014-Oct-27 22:00S 53°42' W 066°00'19 9.3 350 / 26991.6 10.2 7.9
2014-Oct-27 20:00S 53°30' W 066°24'2512.7 340 / 27993.7 9.1 7.9
2014-Oct-27 18:00S 53°12' W 066°54'2512.7 330 / 23995.4 8.8 7.9
2014-Oct-27 16:00S 52°54' W 067°24'19 9.4 350 / 17996.2 7.0 7.9
2014-Oct-27 14:00S 52°42' W 067°48'16 8.1 320 / 17997.5 9.6 7.9
2014-Oct-27 12:00S 52°30' W 068°06'4411.0 320 / 20998.4 8.1 7.9
2014-Oct-27 08:00S 52°12' W 069°12'4410.9 310 / 16998.8 6.2 7.9
2014-Oct-27 04:00S 52°36' W 070°12'32 4.0 330 / 12998.9 6.4 7.9
2014-Oct-26 20:00S 53°00' W 070°48'0 0.0 030 / 16998.0 9.6 7.9
2014-Oct-26 16:00S 53°00' W 070°48'0 0.0 030 / 8998.9 8.0 7.9
2014-Oct-26 10:00S 53°00' W 070°48'0 0.0 230 / 4996.4 5.2 7.9
2014-Oct-26 08:00S 53°00' W 070°48'0 0.0 350 / 5995.3 6.2 7.9
2014-Oct-26 02:00S 53°00' W 070°48'0 0.0 070 / 8995.3 7.4 7.9
2014-Oct-25 22:00S 53°00' W 070°48'12 6.2 050 / 14994.8 10.6 7.9
2014-Oct-25 20:00S 53°06' W 070°30'0 0.0 240 / 18994.9 9.9 6.6
2014-Oct-25 18:00S 53°06' W 070°30'12 6.2 170 / 22995.9 10.3 6.6
2014-Oct-25 16:00S 53°00' W 070°48'0 0.0 180 / 19996.5 10.3
2014-Oct-25 12:00S 53°00' W 070°48'0 0.0 210 / 5998.8 9.0 6.5
2014-Oct-25 10:00S 53°00' W 070°48'0 0.0 130 / 41000.3 8.6 6.5
2014-Oct-25 08:00S 53°00' W 070°48'0 0.0 040 / 81001.9 8.5 6.5
2014-Oct-25 04:00S 53°00' W 070°48'0 0.0 200 / 131004.9 8.8 6.5
2014-Oct-24 18:00S 53°00' W 070°48'0 0.0 110 / 341004.1 12.4 6.5
2014-Oct-24 08:00S 53°00' W 070°48'0 0.0 050 / 41004.0 9.4 7.8
2014-Oct-24 04:00S 53°00' W 070°48'0 0.0 150 / 301002.6 8.8 7.8
2014-Oct-23 20:00S 53°00' W 070°48'0 0.0 030 / 261007.5 9.1 4.9
2014-Oct-23 18:00S 53°00' W 070°48'0 0.0 100 / 241008.7 9.3 4.9
2014-Oct-23 14:00S 53°00' W 070°48'0 0.0 130 / 171010.0 8.1 4.9
2014-Oct-23 12:00S 53°00' W 070°48'0 0.0 070 / 201008.8 7.5 4.9
2014-Oct-23 10:00S 53°00' W 070°48'0 0.0 240 / 161007.7 6.5 4.9
2014-Oct-23 08:00S 53°00' W 070°48'0 0.0 360 / 261005.3 6.5 4.9
2014-Oct-23 04:00S 53°00' W 070°48'0 0.0 160 / 181001.7 7.7 4.9
2014-Oct-23 02:00S 53°00' W 070°48'0 0.0 040 / 171002.6 7.4 4.9
2014-Oct-23 00:00S 53°00' W 070°48'0 0.0 120 / 171004.0 7.6 4.9
2014-Oct-22 22:00S 53°00' W 070°48'0 0.0 140 / 101004.6 8.8 4.9
2014-Oct-22 18:00S 53°00' W 070°48'0 0.0 090 / 181004.1 10.2 4.9
2014-Oct-22 12:00S 53°00' W 070°48'0 0.0 070 / 151004.2 6.9 4.9
2014-Oct-22 10:00S 53°00' W 070°48'0 0.0 230 / 111003.7 5.2 4.9
2014-Oct-22 08:00S 53°00' W 070°48'0 0.0 020 / 91003.0 5.0 4.9
2014-Oct-22 04:00S 53°00' W 070°48'0 0.0 130 / 91000.6 6.4 4.9
2014-Oct-22 00:00S 53°00' W 070°48'0 0.0 210 / 5998.3 8.3 4.9
2014-Oct-21 22:00S 53°00' W 070°48'0 0.0 170 / 11997.8 8.8 4.9
2014-Oct-21 20:00S 53°00' W 070°48'4 1.8 010 / 12996.7 10.9 4.9
2014-Oct-21 18:00S 53°00' W 070°42'   190 / 13997.0 11.1 4.9
Track history (hours):
 
Tides and Currents Weather Stations Pressure Air Temp Water Temp Dewpoint Dewpoint Depression Visibility Wind Speed Wind Dir Waves Ship Positions

Oceanographic research ship Nathaniel B. Palmer (USA)

Contact: Ethan Norris, ethan.norris.contractor@usap.gov

Detailed information on ship capabilities available from University of Delaware's Ocean Information Center and ARCUS's ALIAS (Arctic Logistics Information and Support) project.

Owner: OFFSHORE SERVICE VESSELS, GALLIANO, LA. More information available from US FCC via Universal Licensing System and Coast Guard Vessel Documentation Center.

Last reported at 2014-Oct-31 16:00 UTC. Time now 2014-Oct-31 21:55 UTC.
Position S 63°00' W 068°42'.

Type: Other ship. MMSI: 366610000.

Wind from 280 at 16 knots

Barometer 1010.6 mb
Air temperature -2.4 ° C
Water temperature 1.7 ° C

Date/timePositionNaut miles runAvg speedWind from/ knotsBaromVisibWave heightAir tempDewpointWater temp
2014-Oct-31 16:00S 63°00' W 068°42'7 3.3 280 / 161010.6 -2.4 1.7
2014-Oct-31 14:00S 62°54' W 068°48'0 0.0 350 / 171012.4 -3.5 1.6
2014-Oct-31 12:00S 62°54' W 068°48'3 1.4 310 / 211013.2 -4.4 1.6
2014-Oct-31 10:00S 62°54' W 068°54'15 7.3 350 / 201013.3 -5.1 1.6
2014-Oct-31 08:00S 62°42' W 069°12'10 2.6 240 / 141013.1 -5.1 1.7
2014-Oct-31 04:00S 62°36' W 069°30'12 6.2 320 / 231011.5 -4.7 0.6
2014-Oct-31 02:00S 62°24' W 069°24'19 9.4 220 / 281010.2 -4.0 1.1
2014-Oct-31 00:00S 62°06' W 069°12'18 9.1 200 / 291009.0 -3.5 1.1
2014-Oct-30 22:00S 61°48' W 069°06'19 9.4 200 / 271006.7 -2.3 0.6
2014-Oct-30 20:00S 61°30' W 068°54'19 9.4 210 / 221005.3 -3.1 0.3
2014-Oct-30 18:00S 61°12' W 068°42'19 9.5 190 / 211003.0 -1.9 0.6
2014-Oct-30 16:00S 60°54' W 068°30'0 0.0 240 / 231001.6 -1.4 1.5
2014-Oct-30 14:00S 60°54' W 068°30'0 0.0 220 / 20999.9 -2.4 1.4
2014-Oct-30 12:00S 60°54' W 068°30'19 9.5 150 / 21998.1 -2.4 1.4
2014-Oct-30 10:00S 60°36' W 068°18'13 6.7 180 / 21995.8 -1.8 1.4
2014-Oct-30 08:00S 60°24' W 068°06'75 9.4 180 / 18994.2 -2.4 2.5
2014-Oct-30 00:00S 59°12' W 067°24'12 6.2 200 / 18988.9 -1.7 7.9
2014-Oct-29 22:00S 59°00' W 067°18'18 9.1 190 / 20987.1 -1.1 7.9
2014-Oct-29 20:00S 58°42' W 067°12'18 9.1 190 / 16985.4 -0.3 7.9
2014-Oct-29 18:00S 58°24' W 067°06'18 9.1 160 / 11984.1 0.6 7.9
2014-Oct-29 16:00S 58°06' W 067°00'18 9.1 190 / 10983.0 1.2 7.9
2014-Oct-29 14:00S 57°48' W 066°54'18 9.1 200 / 8982.8 1.2 7.9
2014-Oct-29 12:00S 57°30' W 066°48'73 9.1 250 / 8982.6 1.0 7.9
2014-Oct-29 04:00S 56°18' W 066°24'18 9.2 280 / 14986.0 1.5 7.9
2014-Oct-29 02:00S 56°00' W 066°18'18 9.2 280 / 20987.0 1.0 7.9
2014-Oct-29 00:00S 55°42' W 066°12'12 6.2 260 / 21987.4 3.1 7.9
2014-Oct-28 22:00S 55°30' W 066°06'45 5.7 260 / 20988.2 3.1 7.9
2014-Oct-28 14:00S 55°00' W 065°06'9 4.6 250 / 16988.8 6.0 7.9
2014-Oct-28 12:00S 54°54' W 064°54'24 6.1 300 / 2988.8 7.6 7.9
2014-Oct-28 08:00S 54°30' W 064°48'32 5.3 300 / 13988.8 7.3 7.9
2014-Oct-28 02:00S 54°06' W 065°24'32 8.0 330 / 26990.2 10.1 7.9
2014-Oct-27 22:00S 53°42' W 066°00'19 9.3 350 / 26991.6 10.2 7.9
2014-Oct-27 20:00S 53°30' W 066°24'2512.7 340 / 27993.7 9.1 7.9
2014-Oct-27 18:00S 53°12' W 066°54'2512.7 330 / 23995.4 8.8 7.9
2014-Oct-27 16:00S 52°54' W 067°24'19 9.4 350 / 17996.2 7.0 7.9
2014-Oct-27 14:00S 52°42' W 067°48'16 8.1 320 / 17997.5 9.6 7.9
2014-Oct-27 12:00S 52°30' W 068°06'4411.0 320 / 20998.4 8.1 7.9
2014-Oct-27 08:00S 52°12' W 069°12'4410.9 310 / 16998.8 6.2 7.9
2014-Oct-27 04:00S 52°36' W 070°12'32 4.0 330 / 12998.9 6.4 7.9
2014-Oct-26 20:00S 53°00' W 070°48'0 0.0 030 / 16998.0 9.6 7.9
2014-Oct-26 16:00S 53°00' W 070°48'0 0.0 030 / 8998.9 8.0 7.9
2014-Oct-26 10:00S 53°00' W 070°48'0 0.0 230 / 4996.4 5.2 7.9
2014-Oct-26 08:00S 53°00' W 070°48'0 0.0 350 / 5995.3 6.2 7.9
2014-Oct-26 02:00S 53°00' W 070°48'0 0.0 070 / 8995.3 7.4 7.9
2014-Oct-25 22:00S 53°00' W 070°48'12 6.2 050 / 14994.8 10.6 7.9
2014-Oct-25 20:00S 53°06' W 070°30'0 0.0 240 / 18994.9 9.9 6.6
2014-Oct-25 18:00S 53°06' W 070°30'12 6.2 170 / 22995.9 10.3 6.6
2014-Oct-25 16:00S 53°00' W 070°48'0 0.0 180 / 19996.5 10.3
2014-Oct-25 12:00S 53°00' W 070°48'0 0.0 210 / 5998.8 9.0 6.5
2014-Oct-25 10:00S 53°00' W 070°48'0 0.0 130 / 41000.3 8.6 6.5
2014-Oct-25 08:00S 53°00' W 070°48'0 0.0 040 / 81001.9 8.5 6.5
2014-Oct-25 04:00S 53°00' W 070°48'0 0.0 200 / 131004.9 8.8 6.5
2014-Oct-24 18:00S 53°00' W 070°48'0 0.0 110 / 341004.1 12.4 6.5
2014-Oct-24 08:00S 53°00' W 070°48'0 0.0 050 / 41004.0 9.4 7.8
2014-Oct-24 04:00S 53°00' W 070°48'0 0.0 150 / 301002.6 8.8 7.8
2014-Oct-23 20:00S 53°00' W 070°48'0 0.0 030 / 261007.5 9.1 4.9
2014-Oct-23 18:00S 53°00' W 070°48'0 0.0 100 / 241008.7 9.3 4.9
2014-Oct-23 14:00S 53°00' W 070°48'0 0.0 130 / 171010.0 8.1 4.9
2014-Oct-23 12:00S 53°00' W 070°48'0 0.0 070 / 201008.8 7.5 4.9
2014-Oct-23 10:00S 53°00' W 070°48'0 0.0 240 / 161007.7 6.5 4.9
2014-Oct-23 08:00S 53°00' W 070°48'0 0.0 360 / 261005.3 6.5 4.9
2014-Oct-23 04:00S 53°00' W 070°48'0 0.0 160 / 181001.7 7.7 4.9
2014-Oct-23 02:00S 53°00' W 070°48'0 0.0 040 / 171002.6 7.4 4.9
2014-Oct-23 00:00S 53°00' W 070°48'0 0.0 120 / 171004.0 7.6 4.9
2014-Oct-22 22:00S 53°00' W 070°48'0 0.0 140 / 101004.6 8.8 4.9
2014-Oct-22 18:00S 53°00' W 070°48'0 0.0 090 / 181004.1 10.2 4.9
2014-Oct-22 12:00S 53°00' W 070°48'0 0.0 070 / 151004.2 6.9 4.9
2014-Oct-22 10:00S 53°00' W 070°48'0 0.0 230 / 111003.7 5.2 4.9
2014-Oct-22 08:00S 53°00' W 070°48'0 0.0 020 / 91003.0 5.0 4.9
2014-Oct-22 04:00S 53°00' W 070°48'0 0.0 130 / 91000.6 6.4 4.9
2014-Oct-22 00:00S 53°00' W 070°48'0 0.0 210 / 5998.3 8.3 4.9
2014-Oct-21 22:00S 53°00' W 070°48'0 0.0 170 / 11997.8 8.8 4.9
2014-Oct-21 20:00S 53°00' W 070°48'4 1.8 010 / 12996.7 10.9 4.9
2014-Oct-21 18:00S 53°00' W 070°42'   190 / 13997.0 11.1 4.9

Dump ship's entire track history